KADG/ADG METAR and TAF weather

Enter ICAO airport designator
Station Type Date Time Source
KADG METAR 2020/07/08 00:53 UTC NOAA

KADG 080053Z AUTO 26004KT 10SM BKN075 28/20 A2994 RMK AO2 SLP135 T02830200 TSNO


Station Type Date Time Source
KADG Decoded METAR 2020/07/08 00:53 UTC NOAA

ADRIAN LENAWEE COUNTY AIRPORT, MI, United States (KADG) 41-52N 84-05W 241M
Jul 07, 2020 - 08:53 PM EDT / 2020.07.08 0053 UTC
Wind: from the W (260 degrees) at 5 MPH (4 KT):0
Visibility: 10 mile(s):0
Sky conditions: mostly cloudy
Temperature: 82.9 F (28.3 C)
Dew Point: 68.0 F (20.0 C)
Relative Humidity: 60%
Pressure (altimeter): 29.94 in. Hg (1013 hPa)
ob: KADG 080053Z AUTO 26004KT 10SM BKN075 28/20 A2994 RMK AO2 SLP135 T02830200 TSNO
cycle: 1

Station Type Date Time Source
KADG TAF UTC NOAA

Error!

Example: see airport list